createdAt,value
2019-01-27T00:00:58.446Z,49.38
2019-01-27T00:03:28.886Z,49.03
2019-01-27T00:05:59.389Z,51.80
2019-01-27T00:08:30.013Z,51.05
2019-01-27T00:11:00.572Z,56.20
2019-01-27T00:13:30.985Z,54.45
2019-01-27T00:16:01.421Z,54.00
2019-01-27T00:18:31.803Z,49.20
2019-01-27T00:21:02.296Z,49.13
2019-01-27T00:23:32.667Z,47.20
2019-01-27T00:26:03.195Z,49.33
2019-01-27T00:28:33.747Z,23.15
2019-01-27T00:31:06.242Z,49.15
2019-01-27T00:33:36.699Z,50.23
2019-01-27T00:36:06.999Z,54.83
2019-01-27T00:38:37.397Z,47.98
2019-01-27T00:41:08.052Z,48.75
2019-01-27T00:43:39.150Z,44.58
2019-01-27T00:46:09.657Z,40.83
2019-01-27T00:48:40.102Z,16.45
2019-01-27T00:51:10.556Z,10.38
2019-01-27T00:53:41.092Z,12.93
2019-01-27T00:56:11.570Z,8.50
2019-01-27T00:58:42.043Z,10.43
2019-01-27T01:01:13.908Z,10.78
2019-01-27T01:03:44.480Z,11.05
2019-01-27T01:06:14.861Z,10.32
2019-01-27T01:08:45.308Z,21.12
2019-01-27T01:11:15.841Z,9.63
2019-01-27T01:13:46.219Z,24.82
2019-01-27T01:16:16.540Z,16.77
2019-01-27T01:18:47.135Z,11.85
2019-01-27T01:21:17.608Z,16.67
2019-01-27T01:23:47.911Z,13.88
2019-01-27T01:26:18.472Z,23.42
2019-01-27T01:28:48.910Z,16.20
2019-01-27T01:31:19.242Z,15.60
2019-01-27T01:33:49.702Z,10.85
2019-01-27T01:36:20.131Z,16.97
2019-01-27T01:38:50.677Z,15.35
2019-01-27T01:41:21.037Z,13.32
2019-01-27T01:43:51.466Z,10.67
2019-01-27T01:46:21.840Z,12.23
2019-01-27T01:48:52.158Z,15.40
2019-01-27T01:51:22.519Z,11.83
2019-01-27T01:53:53.223Z,12.33
2019-01-27T01:56:23.590Z,13.53
2019-01-27T01:58:54.084Z,16.07
2019-01-27T02:01:24.698Z,11.80
2019-01-27T02:03:55.078Z,10.50
2019-01-27T02:06:25.434Z,12.57
2019-01-27T02:08:55.933Z,9.97
2019-01-27T02:11:26.290Z,10.53
2019-01-27T02:13:56.684Z,12.73
2019-01-27T02:16:27.081Z,12.82
2019-01-27T02:18:57.445Z,12.87
2019-01-27T02:21:27.974Z,15.83
2019-01-27T02:23:58.449Z,15.17
2019-01-27T02:26:28.972Z,15.73
2019-01-27T02:29:01.669Z,14.40
2019-01-27T02:31:31.235Z,17.27
2019-01-27T02:34:01.597Z,17.03
2019-01-27T02:36:32.061Z,21.10
2019-01-27T02:39:02.494Z,18.43
2019-01-27T02:41:32.877Z,16.23
2019-01-27T02:44:03.365Z,17.47
2019-01-27T02:46:33.802Z,15.57
2019-01-27T02:49:04.199Z,18.13
2019-01-27T02:51:34.679Z,16.57
2019-01-27T02:54:05.512Z,14.90
2019-01-27T02:56:35.959Z,19.93
2019-01-27T02:59:06.682Z,16.77
2019-01-27T03:01:37.038Z,14.43
2019-01-27T03:04:07.495Z,13.80
2019-01-27T03:06:39.386Z,14.43
2019-01-27T03:09:12.113Z,16.73
2019-01-27T03:11:47.102Z,13.33
2019-01-27T03:14:18.176Z,17.10
2019-01-27T03:16:49.427Z,17.10
2019-01-27T03:19:19.918Z,16.83
2019-01-27T03:21:50.301Z,11.80
2019-01-27T03:24:20.785Z,12.20
2019-01-27T03:26:51.145Z,16.43
2019-01-27T03:29:21.550Z,15.47
2019-01-27T03:31:52.032Z,18.37
2019-01-27T03:34:22.504Z,11.57
2019-01-27T03:36:52.887Z,12.07
2019-01-27T03:39:23.241Z,13.00
2019-01-27T03:41:53.704Z,11.70
2019-01-27T03:44:24.040Z,10.40
2019-01-27T03:46:54.426Z,10.40
2019-01-27T03:49:25.019Z,11.37
2019-01-27T03:51:55.410Z,11.70
2019-01-27T03:54:27.089Z,10.33
2019-01-27T03:56:57.770Z,9.77
2019-01-27T03:59:28.201Z,10.70
2019-01-27T04:01:58.680Z,10.00
2019-01-27T04:04:29.109Z,12.50
2019-01-27T04:06:59.591Z,7.20
2019-01-27T04:09:30.087Z,10.63
2019-01-27T04:12:00.580Z,12.50
2019-01-27T04:14:30.909Z,16.37
2019-01-27T04:17:01.292Z,9.60
2019-01-27T04:19:50.863Z,15.53
2019-01-27T04:22:21.335Z,12.57
2019-01-27T04:24:51.717Z,9.90
2019-01-27T04:27:22.123Z,11.17
2019-01-27T04:29:52.609Z,11.83
2019-01-27T04:32:22.974Z,9.70
2019-01-27T04:34:53.330Z,10.13
2019-01-27T04:37:24.926Z,7.37
2019-01-27T04:39:55.318Z,9.23
2019-01-27T04:42:25.876Z,11.73
2019-01-27T04:44:56.268Z,12.57
2019-01-27T04:47:26.623Z,12.93
2019-01-27T04:49:57.049Z,15.07
2019-01-27T04:52:27.403Z,14.37
2019-01-27T04:54:57.955Z,25.77
2019-01-27T04:57:28.626Z,13.30
2019-01-27T04:59:58.908Z,13.50
2019-01-27T05:02:30.690Z,10.10
2019-01-27T05:05:01.176Z,9.23
2019-01-27T05:07:31.539Z,15.27
2019-01-27T05:10:01.896Z,9.43
2019-01-27T05:12:32.325Z,13.23
2019-01-27T05:15:02.759Z,11.07
2019-01-27T05:17:33.384Z,14.77
2019-01-27T05:20:03.897Z,13.60
2019-01-27T05:22:34.277Z,14.67
2019-01-27T05:25:06.130Z,15.03
2019-01-27T05:27:36.563Z,19.23
2019-01-27T05:30:18.571Z,14.83
2019-01-27T05:32:49.999Z,18.77
2019-01-27T05:35:20.733Z,15.03
2019-01-27T05:37:52.155Z,22.53
2019-01-27T05:40:24.093Z,20.63
2019-01-27T05:42:57.051Z,16.73
2019-01-27T05:45:27.512Z,11.93
2019-01-27T05:47:58.853Z,15.23
2019-01-27T05:50:29.425Z,15.03
2019-01-27T05:53:01.327Z,11.20
2019-01-27T05:55:31.936Z,15.80
2019-01-27T05:58:03.537Z,15.17
2019-01-27T06:00:38.323Z,15.90
2019-01-27T06:03:10.358Z,15.33
2019-01-27T06:05:40.846Z,11.00
2019-01-27T06:08:30.238Z,18.80
2019-01-27T06:11:02.150Z,10.70
2019-01-27T06:13:32.474Z,12.17
2019-01-27T06:16:02.801Z,11.17
2019-01-27T06:18:33.250Z,13.43
2019-01-27T06:21:04.803Z,10.93
2019-01-27T06:23:35.987Z,10.93
2019-01-27T06:26:06.420Z,13.77
2019-01-27T06:28:38.210Z,10.53
2019-01-27T06:31:09.080Z,13.07
2019-01-27T06:33:40.865Z,10.37
2019-01-27T06:36:11.256Z,11.03
2019-01-27T06:38:41.561Z,11.63
2019-01-27T06:41:12.021Z,13.53
2019-01-27T06:43:42.373Z,10.60
2019-01-27T06:46:12.757Z,16.40
2019-01-27T06:48:43.297Z,19.30
2019-01-27T06:51:15.821Z,15.67
2019-01-27T06:53:46.257Z,21.87
2019-01-27T06:56:16.592Z,15.63
2019-01-27T06:59:06.857Z,14.70
2019-01-27T07:01:47.703Z,17.70
2019-01-27T07:04:19.550Z,15.20
2019-01-27T07:07:07.633Z,15.10
2019-01-27T07:09:39.474Z,12.20
2019-01-27T07:12:28.963Z,13.67
2019-01-27T07:15:00.813Z,14.40
2019-01-27T07:17:44.492Z,11.70
2019-01-27T07:20:19.430Z,13.67
2019-01-27T07:23:06.249Z,11.03
2019-01-27T07:25:49.977Z,9.93
2019-01-27T07:28:23.012Z,10.83
2019-01-27T07:31:06.802Z,10.23
2019-01-27T07:33:38.636Z,13.33
2019-01-27T07:36:19.042Z,13.87
2019-01-27T07:38:50.914Z,14.87
2019-01-27T07:41:23.790Z,16.17
2019-01-27T07:44:01.685Z,14.63
2019-01-27T07:46:42.478Z,11.93
2019-01-27T07:49:23.554Z,8.47
2019-01-27T07:52:16.115Z,9.80
2019-01-27T07:54:50.854Z,12.37
2019-01-27T07:57:34.640Z,9.43
2019-01-27T08:00:13.677Z,12.50
2019-01-27T08:02:51.852Z,10.13
2019-01-27T08:05:23.684Z,12.33
2019-01-27T08:07:58.273Z,11.70
2019-01-27T08:10:30.119Z,8.90
2019-01-27T08:13:01.821Z,10.87
2019-01-27T08:15:36.449Z,9.30
2019-01-27T08:18:11.124Z,10.13
2019-01-27T08:20:58.718Z,13.17
2019-01-27T08:24:06.429Z,18.57
2019-01-27T08:26:55.652Z,11.40
2019-01-27T08:29:33.285Z,10.50
2019-01-27T08:32:23.283Z,15.10
2019-01-27T08:34:54.945Z,17.43
2019-01-27T08:37:26.805Z,16.90
2019-01-27T08:40:01.481Z,17.30
2019-01-27T08:42:36.152Z,14.37
2019-01-27T08:45:10.899Z,16.37
2019-01-27T08:47:41.376Z,18.37
2019-01-27T08:50:14.309Z,16.53
2019-01-27T08:52:44.611Z,19.23
2019-01-27T08:55:15.702Z,20.20
2019-01-27T08:57:46.100Z,17.83
2019-01-27T09:00:19.816Z,14.97
2019-01-27T09:02:54.647Z,18.87
2019-01-27T09:05:29.356Z,21.37
2019-01-27T09:08:03.570Z,25.30
2019-01-27T09:10:37.977Z,14.53
2019-01-27T09:13:15.502Z,19.73
2019-01-27T09:15:47.343Z,25.63
2019-01-27T09:18:28.086Z,23.30
2019-01-27T09:21:02.842Z,24.13
2019-01-27T09:23:40.317Z,16.43
2019-01-27T09:26:18.188Z,14.93
2019-01-27T09:28:49.876Z,14.03
2019-01-27T09:31:33.689Z,13.23
2019-01-27T09:34:17.517Z,14.17
2019-01-27T09:37:01.370Z,15.33
2019-01-27T09:39:45.153Z,15.33
2019-01-27T09:42:16.936Z,14.70
2019-01-27T09:44:57.514Z,16.07
2019-01-27T09:47:35.619Z,14.50
2019-01-27T09:50:10.281Z,15.97
2019-01-27T09:52:44.624Z,11.93
2019-01-27T09:55:19.379Z,17.07
2019-01-27T09:58:00.165Z,16.70
2019-01-27T10:00:38.302Z,16.10
2019-01-27T10:03:13.346Z,14.87
2019-01-27T10:05:45.156Z,16.13
2019-01-27T10:08:23.032Z,15.87
2019-01-27T10:11:00.807Z,17.80
2019-01-27T10:13:32.531Z,19.17
2019-01-27T10:16:16.521Z,16.83
2019-01-27T10:18:57.382Z,13.40
2019-01-27T10:21:44.301Z,14.83
2019-01-27T10:24:28.474Z,17.53
2019-01-27T10:30:14.060Z,14.67
2019-01-27T10:32:54.522Z,17.17
2019-01-27T10:35:26.368Z,17.07
2019-01-27T10:38:07.141Z,19.97
2019-01-27T10:40:39.868Z,19.43
2019-01-27T10:43:12.062Z,19.23
2019-01-27T10:45:46.381Z,18.23
2019-01-27T10:48:18.142Z,23.33
2019-01-27T10:51:05.153Z,21.17
2019-01-27T10:53:36.862Z,20.23
2019-01-27T10:56:09.112Z,25.03
2019-01-27T10:58:47.049Z,26.70
2019-01-27T11:01:21.781Z,25.70
2019-01-27T11:04:09.934Z,27.73
2019-01-27T11:06:51.010Z,21.23
2019-01-27T11:09:23.030Z,22.57
2019-01-27T11:11:54.875Z,21.97
2019-01-27T11:14:26.738Z,28.33
2019-01-27T11:17:04.935Z,26.60
2019-01-27T11:19:52.902Z,24.57
2019-01-27T11:22:24.768Z,25.17
2019-01-27T11:25:02.558Z,26.97
2019-01-27T11:27:52.093Z,26.37
2019-01-27T11:30:36.557Z,32.93
2019-01-27T11:33:08.813Z,39.43
2019-01-27T11:35:55.884Z,63.63
2019-01-27T11:38:27.641Z,38.73
2019-01-27T11:40:59.551Z,40.33
2019-01-27T11:43:47.694Z,55.77
2019-01-27T11:46:25.406Z,80.77
2019-01-27T11:48:59.843Z,141.83
2019-01-27T11:51:31.855Z,356.20
2019-01-27T11:54:02.248Z,45.13
2019-01-27T11:56:32.614Z,91.23
2019-01-27T11:59:03.073Z,78.47
2019-01-27T12:01:33.447Z,86.57
2019-01-27T12:04:03.812Z,109.30
2019-01-27T12:06:34.303Z,85.17
2019-01-27T12:09:06.072Z,57.00
2019-01-27T12:11:36.678Z,56.17
2019-01-27T12:14:07.099Z,46.63
2019-01-27T12:16:37.427Z,222.40
2019-01-27T12:19:08.059Z,233.27
2019-01-27T12:21:38.545Z,163.43
2019-01-27T12:24:08.920Z,143.33
2019-01-27T12:26:39.964Z,249.20
2019-01-27T12:29:10.295Z,120.23
2019-01-27T12:31:40.764Z,63.80
2019-01-27T12:34:11.176Z,64.40
2019-01-27T12:36:41.775Z,47.00
2019-01-27T12:39:12.178Z,72.30
2019-01-27T12:41:42.687Z,44.23
2019-01-27T12:44:13.138Z,88.10
2019-01-27T12:46:43.467Z,75.10
2019-01-27T12:49:13.900Z,84.63
2019-01-27T12:51:44.827Z,58.53
2019-01-27T12:54:15.448Z,145.17
2019-01-27T12:56:45.865Z,54.17
2019-01-27T12:59:16.338Z,44.63
2019-01-27T13:01:46.824Z,43.53
2019-01-27T13:04:17.193Z,40.03
2019-01-27T13:06:47.624Z,40.70
2019-01-27T13:09:18.050Z,37.13
2019-01-27T13:11:48.427Z,32.10
2019-01-27T13:14:18.967Z,37.23
2019-01-27T13:16:49.391Z,36.07
2019-01-27T13:19:19.778Z,39.67
2019-01-27T13:21:50.133Z,35.33
2019-01-27T13:24:20.669Z,38.43
2019-01-27T13:26:50.951Z,33.97
2019-01-27T13:29:21.394Z,31.33
2019-01-27T13:31:53.037Z,26.93
2019-01-27T13:34:23.451Z,31.60
2019-01-27T13:36:53.741Z,34.23
2019-01-27T13:39:24.197Z,28.97
2019-01-27T13:41:54.692Z,30.13
2019-01-27T13:44:30.902Z,31.20
2019-01-27T13:47:01.415Z,29.60
2019-01-27T13:49:31.946Z,32.90
2019-01-27T13:52:03.720Z,34.60
2019-01-27T13:54:34.235Z,32.98
2019-01-27T13:57:04.711Z,31.00
2019-01-27T13:59:35.049Z,33.92
2019-01-27T14:02:05.628Z,36.65
2019-01-27T14:04:35.956Z,39.33
2019-01-27T14:07:09.358Z,34.67
2019-01-27T14:09:39.816Z,38.38
2019-01-27T14:12:10.151Z,42.85
2019-01-27T14:14:41.985Z,42.85
2019-01-27T14:17:12.668Z,44.42
2019-01-27T14:19:43.053Z,45.50
2019-01-27T14:22:13.519Z,38.13
2019-01-27T14:24:44.032Z,51.83
2019-01-27T14:27:14.502Z,44.13
2019-01-27T14:29:44.904Z,49.70
2019-01-27T14:32:15.414Z,45.90
2019-01-27T14:34:45.758Z,40.20
2019-01-27T14:37:16.114Z,37.60
2019-01-27T14:39:46.550Z,36.90
2019-01-27T14:42:16.941Z,36.28
2019-01-27T14:44:47.322Z,38.28
2019-01-27T14:47:17.790Z,36.85
2019-01-27T14:49:48.093Z,42.40
2019-01-27T14:52:19.796Z,37.63
2019-01-27T14:54:50.830Z,34.73
2019-01-27T14:57:23.939Z,40.35
2019-01-27T14:59:54.386Z,37.70
2019-01-27T15:02:24.776Z,34.40
2019-01-27T15:04:55.153Z,37.15
2019-01-27T15:07:25.574Z,29.85
2019-01-27T15:09:56.101Z,31.55
2019-01-27T15:12:26.568Z,29.18
2019-01-27T15:14:58.248Z,28.35
2019-01-27T15:17:33.043Z,25.15
2019-01-27T15:20:03.492Z,26.77
2019-01-27T15:22:36.544Z,26.48
2019-01-27T15:25:09.812Z,24.77
2019-01-27T15:27:40.299Z,20.82
2019-01-27T15:30:17.975Z,26.97
2019-01-27T15:32:48.453Z,22.40
2019-01-27T15:35:20.551Z,20.90
2019-01-27T15:37:51.021Z,28.75
2019-01-27T15:40:24.592Z,29.27
2019-01-27T15:42:55.036Z,23.00
2019-01-27T15:45:33.049Z,22.80
2019-01-27T15:48:03.669Z,21.17
2019-01-27T15:50:37.842Z,26.37
2019-01-27T15:53:13.015Z,20.12
2019-01-27T15:55:43.430Z,20.85
2019-01-27T15:58:15.911Z,22.07
2019-01-27T16:00:46.413Z,21.77
2019-01-27T16:03:17.529Z,17.92
2019-01-27T16:05:47.829Z,20.32
2019-01-27T16:08:18.340Z,38.08
2019-01-27T16:10:51.198Z,19.95
2019-01-27T16:13:23.751Z,19.82
2019-01-27T16:15:54.153Z,16.90
2019-01-27T16:18:24.718Z,17.65
2019-01-27T16:20:55.317Z,14.73
2019-01-27T16:23:32.878Z,17.80
2019-01-27T16:26:04.038Z,21.30
2019-01-27T16:28:34.490Z,15.93
2019-01-27T16:31:06.252Z,21.23
2019-01-27T16:33:38.218Z,16.93
2019-01-27T16:36:08.700Z,16.50
2019-01-27T16:38:39.078Z,23.42
2019-01-27T16:41:09.712Z,16.25
2019-01-27T16:43:40.160Z,18.35
2019-01-27T16:46:10.524Z,15.25
2019-01-27T16:48:42.307Z,17.65
2019-01-27T16:51:15.497Z,13.45
2019-01-27T16:53:45.951Z,21.52
2019-01-27T16:56:16.313Z,24.20
2019-01-27T16:58:46.622Z,17.52
2019-01-27T17:01:18.817Z,26.75
2019-01-27T17:03:49.201Z,14.33
2019-01-27T17:06:19.760Z,18.98
2019-01-27T17:08:50.200Z,19.73
2019-01-27T17:11:20.541Z,12.78
2019-01-27T17:13:50.893Z,15.38
2019-01-27T17:16:21.636Z,18.12
2019-01-27T17:18:52.342Z,25.57
2019-01-27T17:21:27.180Z,16.75
2019-01-27T17:23:58.775Z,16.15
2019-01-27T17:26:29.154Z,15.65
2019-01-27T17:29:03.771Z,14.70
2019-01-27T17:31:34.233Z,14.13
2019-01-27T17:34:08.259Z,11.93
2019-01-27T17:36:38.718Z,15.10
2019-01-27T17:39:12.492Z,21.25
2019-01-27T17:41:43.525Z,14.98
2019-01-27T17:44:14.188Z,17.65
2019-01-27T17:46:44.654Z,19.42
2019-01-27T17:49:24.644Z,22.37
2019-01-27T17:51:55.010Z,18.30
2019-01-27T17:54:25.384Z,19.10
2019-01-27T17:56:59.349Z,19.32
2019-01-27T17:59:30.419Z,19.60
2019-01-27T18:02:24.124Z,22.58
2019-01-27T18:04:56.089Z,18.42
2019-01-27T18:07:27.752Z,14.18
2019-01-27T18:10:02.230Z,19.17
2019-01-27T18:12:36.603Z,16.75
2019-01-27T18:15:08.840Z,15.72
2019-01-27T18:17:39.177Z,23.20
2019-01-27T18:20:13.057Z,23.00
2019-01-27T18:22:44.858Z,16.02
2019-01-27T18:25:15.478Z,16.17
2019-01-27T18:27:46.459Z,23.22
2019-01-27T18:30:21.971Z,17.50
2019-01-27T18:32:53.572Z,21.02
2019-01-27T18:35:23.993Z,18.70
2019-01-27T18:37:54.498Z,17.90
2019-01-27T18:40:24.889Z,19.87
2019-01-27T18:42:56.735Z,23.75
2019-01-27T18:45:27.275Z,16.55
2019-01-27T18:47:57.788Z,18.17
2019-01-27T18:50:28.329Z,23.18
2019-01-27T18:53:01.472Z,19.23
2019-01-27T18:55:48.405Z,23.10
2019-01-27T18:58:20.197Z,19.57
2019-01-27T19:00:55.297Z,17.95
2019-01-27T19:03:27.234Z,24.23
2019-01-27T19:05:59.090Z,18.82
2019-01-27T19:08:57.967Z,22.77
2019-01-27T19:11:32.996Z,19.70
2019-01-27T19:14:15.656Z,25.27
2019-01-27T19:16:53.343Z,21.45
2019-01-27T19:19:25.334Z,21.62
2019-01-27T19:22:01.096Z,24.72
2019-01-27T19:24:36.012Z,23.52
2019-01-27T19:27:14.650Z,23.02
2019-01-27T19:29:52.244Z,23.12
2019-01-27T19:32:30.359Z,27.22
2019-01-27T19:35:09.779Z,29.18
2019-01-27T19:37:50.702Z,28.02
2019-01-27T19:40:22.875Z,27.58
2019-01-27T19:43:00.691Z,24.63
2019-01-27T19:45:41.208Z,29.85
2019-01-27T19:48:19.218Z,24.77
2019-01-27T19:50:50.901Z,29.18
2019-01-27T19:53:27.309Z,26.73
2019-01-27T19:55:59.043Z,23.40
2019-01-27T19:58:30.937Z,30.45
2019-01-27T20:01:02.731Z,21.50
2019-01-27T20:03:38.481Z,22.85
2019-01-27T20:06:16.266Z,23.77
2019-01-27T20:09:00.414Z,26.45
2019-01-27T20:11:47.174Z,23.12
2019-01-27T20:14:28.050Z,22.87
2019-01-27T20:17:11.676Z,22.93
2019-01-27T20:19:43.618Z,22.02
2019-01-27T20:22:17.072Z,21.80
2019-01-27T20:24:48.727Z,24.20
2019-01-27T20:27:26.163Z,28.00
2019-01-27T20:29:58.025Z,21.15
2019-01-27T20:32:29.983Z,29.98
2019-01-27T20:35:18.309Z,23.32
2019-01-27T20:37:52.954Z,26.30
2019-01-27T20:40:31.107Z,23.60
2019-01-27T20:43:14.958Z,25.97
2019-01-27T20:45:46.767Z,28.45
2019-01-27T20:48:27.503Z,22.10
2019-01-27T20:51:02.366Z,26.25
2019-01-27T20:53:34.146Z,27.60
2019-01-27T20:56:19.613Z,23.20
2019-01-27T20:58:57.477Z,29.57
2019-01-27T21:01:29.323Z,23.42
2019-01-27T21:04:02.107Z,19.73
2019-01-27T21:06:33.994Z,22.80
2019-01-27T21:09:10.102Z,28.45
2019-01-27T21:11:47.869Z,27.52
2019-01-27T21:14:31.699Z,26.10
2019-01-27T21:17:18.598Z,23.60
2019-01-27T21:19:49.178Z,29.05
2019-01-27T21:22:19.576Z,24.90
2019-01-27T21:24:50.094Z,23.60
2019-01-27T21:27:20.461Z,28.87
2019-01-27T21:29:50.836Z,31.82
2019-01-27T21:32:21.857Z,25.90
2019-01-27T21:34:52.404Z,23.38
2019-01-27T21:37:22.771Z,26.70
2019-01-27T21:39:53.224Z,23.22
2019-01-27T21:42:23.766Z,26.48
2019-01-27T21:44:54.112Z,26.27
2019-01-27T21:47:24.595Z,24.10
2019-01-27T21:49:54.972Z,22.75
2019-01-27T21:52:25.406Z,25.35
2019-01-27T21:54:55.901Z,25.92
2019-01-27T21:57:26.314Z,23.07
2019-01-27T21:59:56.669Z,25.12
2019-01-27T22:02:27.150Z,26.50
2019-01-27T22:04:57.544Z,25.52
2019-01-27T22:07:27.914Z,25.65
2019-01-27T22:09:58.432Z,30.40
2019-01-27T22:12:28.879Z,30.62
2019-01-27T22:15:01.742Z,30.55
2019-01-27T22:17:32.266Z,24.98
2019-01-27T22:20:02.773Z,24.18
2019-01-27T22:22:33.137Z,26.82
2019-01-27T22:25:03.672Z,29.50
2019-01-27T22:27:33.983Z,25.25
2019-01-27T22:30:06.029Z,23.70
2019-01-27T22:32:36.425Z,30.23
2019-01-27T22:35:08.063Z,25.90
2019-01-27T22:37:38.501Z,34.95
2019-01-27T22:40:11.560Z,29.15
2019-01-27T22:42:42.049Z,32.05
2019-01-27T22:45:14.679Z,30.52
2019-01-27T22:47:45.327Z,25.70
2019-01-27T22:50:18.162Z,27.48
2019-01-27T22:52:50.332Z,30.62
2019-01-27T22:55:20.717Z,31.97
2019-01-27T22:57:51.345Z,30.02
2019-01-27T23:00:28.557Z,27.10
2019-01-27T23:02:59.092Z,31.10
2019-01-27T23:05:29.444Z,27.67
2019-01-27T23:08:01.160Z,27.87
2019-01-27T23:10:31.572Z,28.47
2019-01-27T23:13:01.925Z,31.90
2019-01-27T23:15:32.625Z,32.48
2019-01-27T23:18:03.044Z,36.70
2019-01-27T23:20:33.388Z,29.63
2019-01-27T23:23:03.868Z,33.30
2019-01-27T23:25:34.216Z,30.62
2019-01-27T23:28:04.556Z,29.20
2019-01-27T23:30:35.222Z,37.00
2019-01-27T23:33:05.918Z,34.65
2019-01-27T23:35:39.277Z,36.90
2019-01-27T23:38:09.707Z,33.20
2019-01-27T23:40:40.047Z,31.30
2019-01-27T23:43:10.629Z,39.80
2019-01-27T23:45:40.980Z,33.75
2019-01-27T23:48:11.348Z,40.58
2019-01-27T23:50:41.888Z,31.60
2019-01-27T23:53:12.262Z,30.80
2019-01-27T23:55:42.598Z,38.92
2019-01-27T23:58:12.987Z,38.92
